Latest Weather Observations for Adelaide (Kent Town)

IDS60901

Issued at 6:51 pm CST Tuesday 26 September 2017 (issued every 10 minutes, with the page automatically refreshed every 10 minutes)

About weather observations | Map of Adelaide area stations | Latest observations for Adelaide area | Other Formats
Station Details ID: 023090 Name: KENT TOWN Lat: -34.92 Lon: 138.62 Height: 48.0 m
Data from the previous 72 hours. | See also: Recent months at Adelaide (Kent Town)
Date/Time
CST
Temp
°C
App
Temp
°C
Dew
Point
°C
Rel
Hum
%
Delta-T
°C
Wind Press
QNH
hPa
Press
MSL
hPa
Rain since
9am
mm
Dir  Spd
km/h
Gust
km/h
Spd
kts
Gust
kts
26/06:30pm 21.1 17.4 2.4 29 8.8 ENE 11 20 6 11 1006.9 1006.9 0.0
26/06:00pm 21.4 18.1 2.6 29 8.9 ENE 9 20 5 11 1007.2 1007.2 0.0
26/05:30pm 21.8 18.8 4.2 31 8.6 ENE 9 17 5 9 1007.6 1007.6 0.0
26/05:00pm 22.2 18.5 4.3 31 8.8 ENE 13 24 7 13 1008.0 1008.0 0.0
26/04:30pm 22.3 19.6 5.6 33 8.4 ENE 9 20 5 11 1008.4 1008.4 0.0
26/04:00pm 21.4 18.2 5.3 35 8.0 NE 11 19 6 10 1008.8 1008.8 0.0
26/03:30pm 21.7 18.1 5.2 34 8.2 ENE 13 32 7 17 1008.3 1008.3 0.0
26/03:00pm 21.5 18.1 5.8 36 7.9 E 13 22 7 12 1009.0 1009.0 0.0
26/02:30pm 22.4 19.4 6.1 34 8.3 E 11 20 6 11 1009.5 1009.5 0.0
26/02:00pm 21.0 17.7 6.4 38 7.4 ENE 13 20 7 11 1009.9 1009.9 0.0
26/01:30pm 21.0 18.5 6.4 38 7.4 E 9 22 5 12 1010.9 1010.9 0.0
26/01:00pm 20.6 17.7 6.6 40 7.1 E 11 20 6 11 1011.9 1011.9 0.0
26/12:30pm 19.6 16.4 6.7 43 6.5 E 13 22 7 12 1011.9 1011.9 0.0
26/12:00pm 19.0 15.5 5.6 41 6.6 ENE 13 19 7 10 1012.8 1012.8 0.0
26/11:30am 18.8 15.0 5.8 42 6.4 ENE 15 28 8 15 1012.9 1012.9 0.0
26/11:00am 17.7 14.9 5.3 44 6.0 E 9 20 5 11 1013.8 1013.8 0.0
26/10:30am 16.6 13.2 4.2 43 5.8 ENE 11 20 6 11 1013.7 1013.7 0.0
26/10:00am 16.2 12.7 3.6 43 5.8 ENE 11 24 6 13 1014.4 1014.4 0.0
26/09:30am 15.7 11.8 3.5 44 5.6 E 13 26 7 14 1014.8 1014.8 0.0
26/09:00am 15.0 11.6 3.9 47 5.1 E 11 24 6 13 1014.8 1014.8 0.0
26/08:30am 14.0 10.1 3.6 49 4.7 ENE 13 22 7 12 1015.3 1015.3 0.0
26/08:00am 14.0 10.1 3.6 49 4.7 ENE 13 20 7 11 1015.7 1015.7 0.0
26/07:30am 12.5 9.0 3.6 54 4.0 ENE 11 26 6 14 1015.3 1015.3 0.0
26/07:00am 11.5 8.0 3.6 58 3.5 ENE 11 22 6 12 1015.6 1015.6 0.0
26/06:30am 11.1 8.1 4.2 62 3.1 ENE 9 20 5 11 1014.8 1014.8 0.0
26/06:00am 10.9 8.5 4.2 63 3.0 ENE 6 13 3 7 1015.0 1015.0 0.0
26/05:30am 10.7 7.8 4.5 65 2.8 ENE 9 15 5 8 1014.9 1014.9 0.0
26/05:00am 11.0 8.1 4.6 64 2.9 ENE 9 17 5 9 1014.4 1014.4 0.0
26/04:30am 11.1 8.2 4.7 64 2.9 ENE 9 24 5 13 1014.1 1014.1 0.0
26/04:00am 10.3 8.1 5.5 72 2.2 ESE 6 11 3 6 1013.3 1013.3 0.0
26/03:30am 9.6 8.8 6.4 80 1.5 CALM 0 4 0 2 1014.6 1014.6 0.0
26/03:00am 9.2 8.5 6.9 85 1.1 CALM 0 6 0 3 1015.4 1015.4 0.0
26/02:30am 9.2 8.5 6.9 85 1.1 CALM 0 0 0 0 1015.4 1015.4 0.0
26/02:00am 9.1 8.3 6.7 85 1.1 CALM 0 0 0 0 1016.0 1016.0 0.0
26/01:30am 9.0 8.2 6.6 85 1.1 CALM 0 0 0 0 1016.1 1016.1 0.0
26/01:00am 9.3 8.6 7.0 85 1.1 CALM 0 0 0 0 1016.4 1016.4 0.0
26/12:30am 9.7 9.0 6.9 83 1.3 CALM 0 0 0 0 1016.5 1016.5 0.0
26/12:00am 10.1 9.4 6.9 80 1.5 CALM 0 0 0 0 1016.5 1016.5 0.0
 
Date/Time
CST
Temp
°C
App
Temp
°C
Dew
Point
°C
Rel
Hum
%
Delta-T
°C
Wind Press
QNH
hPa
Press
MSL
hPa
Rain since
9am
mm
Dir  Spd
km/h
Gust
km/h
Spd
kts
Gust
kts
25/11:30pm 10.4 9.7 6.8 78 1.7 CALM 0 0 0 0 1016.4 1016.4 0.0
25/11:00pm 11.1 10.4 6.9 75 2.0 CALM 0 0 0 0 1016.5 1016.5 0.0
25/10:30pm 11.5 10.1 7.1 74 2.1 SE 4 11 2 6 1016.6 1016.6 0.0
25/10:00pm 11.7 10.2 6.9 72 2.3 SE 4 7 2 4 1016.5 1016.5 0.0
25/09:30pm 11.8 10.8 7.2 73 2.2 SE 2 7 1 4 1016.6 1016.6 0.0
25/09:00pm 12.2 10.8 7.2 71 2.4 SE 4 9 2 5 1016.4 1016.4 0.0
25/08:30pm 12.4 10.7 7.7 73 2.3 SE 6 11 3 6 1016.3 1016.3 0.0
25/08:00pm 12.8 11.0 7.9 72 2.4 SE 7 13 4 7 1015.9 1015.9 0.0
25/07:30pm 13.4 11.3 8.2 71 2.6 SSE 9 13 5 7 1015.7 1015.7 0.0
25/07:00pm 13.7 11.9 8.1 69 2.8 SW 7 11 4 6 1015.2 1015.2 0.0
25/06:30pm 14.4 11.9 8.0 65 3.2 SW 11 17 6 9 1014.8 1014.8 0.0
25/06:00pm 15.1 12.4 7.4 60 3.8 SW 11 17 6 9 1014.5 1014.5 0.0
25/05:30pm 16.1 13.0 7.3 56 4.4 SW 13 17 7 9 1014.4 1014.4 0.0
25/05:00pm 17.0 13.7 6.2 49 5.3 SW 13 20 7 11 1014.2 1014.2 0.0
25/04:30pm 17.9 14.4 5.6 44 6.0 WSW 13 19 7 10 1014.1 1014.1 0.0
25/04:00pm 18.0 14.4 4.9 42 6.3 SW 13 20 7 11 1014.1 1014.1 0.0
25/03:30pm 18.0 14.5 5.5 43 6.1 SW 13 22 7 12 1014.2 1014.2 0.0
25/03:00pm 18.2 14.5 6.3 45 5.9 SW 15 20 8 11 1014.3 1014.3 0.0
25/02:30pm 17.9 14.8 7.2 49 5.4 SW 13 24 7 13 1014.3 1014.3 0.0
25/02:00pm 17.8 15.1 7.5 51 5.2 SW 11 17 6 9 1014.4 1014.4 0.0
25/01:30pm 18.0 15.0 7.5 50 5.3 WSW 13 20 7 11 1014.7 1014.7 0.0
25/01:00pm 18.0 15.0 7.5 50 5.3 SW 13 24 7 13 1014.7 1014.7 0.0
25/12:30pm 17.2 13.9 8.2 55 4.6 WSW 15 24 8 13 1014.8 1014.8 0.0
25/12:00pm 17.3 14.4 8.1 54 4.7 WSW 13 20 7 11 1014.8 1014.8 0.0
25/11:30am 17.4 13.9 8.9 57 4.4 WSW 17 30 9 16 1014.7 1014.7 0.0
25/11:00am 16.8 14.1 8.9 59 4.1 WSW 13 20 7 11 1014.6 1014.6 0.0
25/10:30am 16.8 13.6 8.4 57 4.3 WSW 15 22 8 12 1014.6 1014.6 0.0
25/10:00am 16.0 13.1 8.3 60 3.9 W 13 22 7 12 1014.5 1014.5 0.0
25/09:30am 15.8 13.3 8.1 60 3.9 WSW 11 20 6 11 1014.4 1014.4 0.0
25/09:00am 14.1 11.4 8.8 70 2.7 W 13 17 7 9 1014.5 1014.5 0.2
25/08:30am 12.8 11.2 8.6 75 2.1 N 7 11 4 6 1014.1 1014.1 0.2
25/08:00am 11.4 8.7 7.5 77 1.9 N 11 17 6 9 1013.8 1013.8 0.2
25/07:30am 10.7 7.9 7.1 78 1.7 N 11 15 6 8 1013.2 1013.2 0.2
25/07:00am 12.2 11.9 8.8 80 1.7 CALM 0 9 0 5 1012.7 1012.7 0.2
25/06:30am 11.3 9.7 8.7 84 1.3 SW 7 11 4 6 1011.6 1011.6 0.2
25/06:00am 11.3 9.9 8.7 84 1.3 SW 6 11 3 6 1011.3 1011.3 0.2
25/05:30am 11.5 9.8 8.3 81 1.6 SW 7 11 4 6 1011.2 1011.2 0.2
25/05:00am 11.5 10.3 8.0 79 1.7 SW 4 9 2 5 1011.2 1011.2 0.2
25/04:30am 12.1 9.6 8.3 77 1.9 W 11 17 6 9 1011.1 1011.1 0.2
25/04:00am 12.2 10.1 8.2 76 2.0 WNW 9 13 5 7 1010.9 1010.9 0.2
25/03:30am 12.4 9.8 7.9 74 2.2 WNW 11 15 6 8 1010.8 1010.8 0.2
25/03:00am 12.4 9.8 7.9 74 2.2 W 11 20 6 11 1010.6 1010.6 0.2
25/02:30am 12.4 10.4 8.6 77 1.9 W 9 17 5 9 1010.5 1010.5 0.2
25/02:00am 12.6 10.5 8.4 75 2.1 WNW 9 19 5 10 1010.5 1010.5 0.2
25/01:30am 12.9 10.8 8.3 73 2.3 W 9 17 5 9 1010.5 1010.5 0.2
25/01:00am 12.8 9.8 7.7 71 2.5 W 13 24 7 13 1010.6 1010.6 0.2
25/12:30am 12.4 9.7 7.2 70 2.5 W 11 22 6 12 1010.6 1010.6 0.2
25/12:00am 12.4 9.7 7.2 70 2.5 W 11 17 6 9 1010.6 1010.6 0.2
 
Date/Time
CST
Temp
°C
App
Temp
°C
Dew
Point
°C
Rel
Hum
%
Delta-T
°C
Wind Press
QNH
hPa
Press
MSL
hPa
Rain since
9am
mm
Dir  Spd
km/h
Gust
km/h
Spd
kts
Gust
kts
24/11:30pm 12.6 9.0 6.8 68 2.8 W 15 20 8 11 1010.7 1010.7 0.2
24/11:00pm 12.8 9.4 6.1 64 3.2 W 13 20 7 11 1010.7 1010.7 0.2
24/10:30pm 13.0 8.8 5.8 61 3.4 W 17 30 9 16 1010.4 1010.4 0.2
24/10:00pm 13.1 9.7 5.7 61 3.5 W 13 22 7 12 1010.6 1010.6 0.2
24/09:30pm 13.2 10.0 6.8 65 3.1 W 13 28 7 15 1010.4 1010.4 0.2
24/09:00pm 13.5 10.3 6.9 64 3.2 W 13 24 7 13 1010.3 1010.3 0.2
24/08:30pm 14.0 9.7 6.8 62 3.5 W 19 32 10 17 1010.1 1010.1 0.2
24/08:00pm 14.5 10.7 7.7 63 3.4 W 17 28 9 15 1009.7 1009.7 0.2
24/07:30pm 14.7 10.4 7.2 61 3.7 W 19 28 10 15 1009.4 1009.4 0.2
24/07:00pm 14.7 11.3 7.7 63 3.5 W 15 24 8 13 1008.9 1008.9 0.2
24/06:30pm 14.9 11.3 6.7 58 4.0 W 15 26 8 14 1008.5 1008.5 0.2
24/06:00pm 15.2 11.6 6.6 56 4.2 W 15 24 8 13 1008.3 1008.3 0.2
24/05:30pm 15.8 11.8 6.6 54 4.5 W 17 35 9 19 1007.9 1007.9 0.2
24/05:00pm 16.1 11.4 5.0 47 5.3 W 19 37 10 20 1007.5 1007.5 0.2
24/04:30pm 17.0 12.5 6.2 49 5.3 W 19 33 10 18 1007.1 1007.1 0.2
24/04:00pm 17.3 12.4 5.3 45 5.8 WNW 20 33 11 18 1006.9 1006.9 0.2
24/03:30pm 17.4 12.0 4.6 42 6.1 W 22 39 12 21 1006.6 1006.6 0.2
24/03:00pm 17.4 11.7 4.9 43 6.0 W 24 46 13 25 1006.6 1006.6 0.2
24/02:30pm 17.3 12.8 7.1 51 5.1 W 20 44 11 24 1006.6 1006.6 0.2
24/02:00pm 17.4 12.6 7.3 51 5.1 W 22 44 12 24 1006.5 1006.4 0.2
24/01:30pm 17.7 13.2 6.9 49 5.4 WNW 20 39 11 21 1006.4 1006.3 0.2
24/01:00pm 17.2 12.0 7.3 52 5.0 W 24 46 13 25 1006.5 1006.4 0.2
24/12:30pm 14.5 10.8 10.3 76 2.2 W 20 39 11 21 1006.6 1006.6 0.2
24/12:00pm 17.1 12.4 7.6 53 4.8 W 22 39 12 21 1006.3 1006.2 0.0
24/11:30am 16.6 11.5 7.5 55 4.6 WNW 24 43 13 23 1006.3 1006.2 0.0
24/11:00am 16.2 11.8 7.4 56 4.4 W 20 35 11 19 1006.1 1006.0 0.0
24/10:30am 14.8 10.1 7.6 62 3.6 WNW 22 41 12 22 1006.0 1005.9 0.0
24/10:00am 15.3 11.2 7.7 60 3.8 NW 19 32 10 17 1006.0 1005.9 0.0
24/09:30am 15.5 11.2 8.0 61 3.8 NW 20 32 11 17 1006.2 1006.1 0.0
24/09:00am 14.8 10.8 8.3 65 3.3 NW 19 35 10 19 1006.0 1005.9 0.0
24/08:30am 14.0 9.8 8.4 69 2.8 NNW 20 37 11 20 1005.9 1005.8 0.0
24/08:00am 14.2 10.4 8.9 70 2.7 NW 19 33 10 18 1005.5 1005.4 0.0
24/07:30am 13.7 10.6 8.8 72 2.5 NW 15 30 8 16 1005.3 1005.2 0.0
24/07:00am 13.4 9.9 8.9 74 2.3 NW 17 28 9 15 1005.1 1005.0 0.0
24/06:30am 13.2 10.5 9.1 76 2.1 NW 13 20 7 11 1004.9 1004.8 0.0
24/06:00am 13.2 10.2 9.3 77 2.0 NW 15 26 8 14 1004.7 1004.6 0.0
24/05:30am 13.2 10.5 9.1 76 2.1 NW 13 20 7 11 1004.4 1004.3 0.0
24/05:00am 13.3 10.2 9.0 75 2.2 NW 15 24 8 13 1004.1 1004.0 0.0
24/04:30am 13.4 10.7 8.9 74 2.3 WNW 13 22 7 12 1003.9 1003.8 0.0
24/04:00am 13.3 10.3 9.2 76 2.1 WNW 15 24 8 13 1003.6 1003.5 0.0
24/03:30am 13.5 11.0 9.6 77 2.0 WNW 13 20 7 11 1003.6 1003.5 0.0
24/03:00am 13.8 10.7 10.2 79 1.9 WNW 17 30 9 16 1003.6 1003.5 0.0
24/02:30am 13.9 11.9 10.3 79 1.9 WNW 11 20 6 11 1003.6 1003.5 0.0
24/02:00am 13.8 11.5 10.4 80 1.8 WNW 13 24 7 13 1003.6 1003.5 0.0
24/01:30am 13.9 11.5 10.1 78 2.0 WNW 13 24 7 13 1004.0 1003.9 0.0
24/01:00am 14.1 11.7 10.1 77 2.1 NW 13 24 7 13 1004.0 1003.9 0.0
24/12:30am 14.3 12.2 9.9 75 2.3 NW 11 20 6 11 1004.4 1004.3 0.0
24/12:00am 14.3 11.4 9.7 74 2.4 WNW 15 32 8 17 1004.8 1004.7 0.0
 
Date/Time
CST
Temp
°C
App
Temp
°C
Dew
Point
°C
Rel
Hum
%
Delta-T
°C
Wind Press
QNH
hPa
Press
MSL
hPa
Rain since
9am
mm
Dir  Spd
km/h
Gust
km/h
Spd
kts
Gust
kts
23/11:30pm 14.4 11.9 9.8 74 2.4 NW 13 22 7 12 1005.0 1004.9 0.0
23/11:00pm 14.5 12.0 9.7 73 2.5 NW 13 26 7 14 1005.0 1004.9 0.0
23/10:30pm 14.7 12.1 9.3 70 2.8 WNW 13 26 7 14 1005.0 1004.9 0.0
23/10:00pm 14.8 11.8 9.2 69 2.9 WNW 15 30 8 16 1005.2 1005.1 0.0
23/09:30pm 15.0 11.7 9.4 69 2.9 WNW 17 28 9 15 1005.2 1005.1 0.0
23/09:00pm 15.0 12.0 9.2 68 3.0 WNW 15 28 8 15 1005.2 1005.1 0.0
23/08:30pm 15.1 12.5 9.3 68 3.0 WNW 13 24 7 13 1005.4 1005.3 0.0
23/08:00pm 15.3 13.1 9.5 68 3.0 WNW 11 20 6 11 1005.3 1005.2 0.0
23/07:30pm 15.5 12.9 9.3 66 3.2 WNW 13 26 7 14 1004.9 1004.8 0.0
23/07:00pm 15.7 12.7 9.1 65 3.4 W 15 24 8 13 1004.4 1004.3 0.0

Latest Capital City Observations: Canberra | Sydney | Melbourne | Brisbane | Adelaide | Perth | Hobart | Darwin

Other Formats:

Comma delimited format used in spreadsheet applications
http://www.bom.gov.au/fwo/IDS60901/IDS60901.94675.axf

JavaScript Object Notation format (JSON) in row-major order
http://www.bom.gov.au/fwo/IDS60901/IDS60901.94675.json